createdAt,value
2018-11-10T00:02:17.022Z,90.77
2018-11-10T00:04:45.200Z,75.60
2018-11-10T00:07:13.337Z,76.60
2018-11-10T00:09:41.501Z,76.83
2018-11-10T00:12:09.717Z,79.33
2018-11-10T00:14:37.881Z,77.83
2018-11-10T00:17:06.501Z,79.67
2018-11-10T00:19:34.657Z,76.10
2018-11-10T00:22:02.800Z,80.80
2018-11-10T00:24:31.263Z,69.40
2018-11-10T00:26:59.427Z,87.53
2018-11-10T00:29:27.550Z,80.87
2018-11-10T00:31:55.691Z,75.50
2018-11-10T00:34:23.803Z,75.43
2018-11-10T00:36:52.715Z,82.57
2018-11-10T00:39:20.829Z,81.30
2018-11-10T00:41:48.965Z,84.73
2018-11-10T00:44:17.101Z,69.47
2018-11-10T00:46:45.297Z,77.97
2018-11-10T00:49:13.463Z,80.63
2018-11-10T00:51:41.603Z,84.73
2018-11-10T00:54:09.791Z,75.03
2018-11-10T00:56:37.987Z,85.93
2018-11-10T00:59:06.134Z,78.90
2018-11-10T01:01:34.367Z,93.03
2018-11-10T01:04:02.647Z,76.50
2018-11-10T01:06:30.801Z,84.90
2018-11-10T01:08:58.993Z,80.70
2018-11-10T01:11:27.123Z,86.17
2018-11-10T01:13:55.289Z,84.17
2018-11-10T01:16:23.402Z,82.10
2018-11-10T01:18:51.541Z,73.13
2018-11-10T01:21:19.699Z,78.03
2018-11-10T01:23:47.894Z,96.97
2018-11-10T01:26:16.031Z,84.43
2018-11-10T01:28:44.176Z,79.10
2018-11-10T01:31:12.321Z,78.03
2018-11-10T01:33:40.815Z,83.90
2018-11-10T01:36:08.955Z,90.37
2018-11-10T01:38:37.133Z,89.83
2018-11-10T01:41:05.615Z,75.87
2018-11-10T01:43:33.787Z,83.53
2018-11-10T01:46:01.901Z,81.20
2018-11-10T01:48:30.061Z,75.77
2018-11-10T01:50:58.225Z,83.53
2018-11-10T01:53:26.351Z,74.13
2018-11-10T01:55:54.706Z,75.30
2018-11-10T01:58:22.849Z,77.73
2018-11-10T02:00:50.976Z,84.07
2018-11-10T02:03:19.112Z,88.53
2018-11-10T02:05:47.235Z,83.50
2018-11-10T02:08:15.385Z,81.83
2018-11-10T02:10:43.584Z,79.63
2018-11-10T02:13:11.740Z,85.37
2018-11-10T02:15:39.900Z,78.60
2018-11-10T02:18:08.917Z,79.33
2018-11-10T02:20:37.112Z,76.33
2018-11-10T02:23:05.419Z,67.97
2018-11-10T02:25:34.083Z,78.50
2018-11-10T02:28:02.231Z,83.50
2018-11-10T02:30:30.449Z,81.47
2018-11-10T02:32:58.541Z,74.10
2018-11-10T02:35:26.716Z,97.37
2018-11-10T02:37:55.451Z,85.70
2018-11-10T02:40:23.613Z,83.83
2018-11-10T02:42:51.725Z,67.87
2018-11-10T02:45:19.925Z,77.77
2018-11-10T02:47:48.097Z,77.57
2018-11-10T02:50:16.265Z,73.57
2018-11-10T02:52:44.495Z,89.23
2018-11-10T02:55:13.262Z,89.83
2018-11-10T02:57:41.979Z,87.67
2018-11-10T03:00:11.327Z,80.20
2018-11-10T03:02:39.499Z,73.40
2018-11-10T03:05:08.105Z,63.60
2018-11-10T03:07:36.629Z,66.20
2018-11-10T03:10:05.484Z,64.97
2018-11-10T03:12:33.653Z,71.17
2018-11-10T03:15:01.876Z,67.43
2018-11-10T03:17:30.061Z,71.70
2018-11-10T03:19:58.176Z,64.90
2018-11-10T03:22:26.349Z,75.93
2018-11-10T03:24:54.485Z,70.77
2018-11-10T03:27:22.625Z,62.93
2018-11-10T03:29:50.765Z,69.23
2018-11-10T03:32:18.955Z,76.03
2018-11-10T03:34:47.135Z,59.90
2018-11-10T03:37:15.351Z,57.67
2018-11-10T03:39:43.523Z,59.07
2018-11-10T03:42:11.664Z,64.47
2018-11-10T03:44:39.886Z,65.13
2018-11-10T03:47:08.901Z,69.63
2018-11-10T03:49:37.049Z,69.17
2018-11-10T03:52:05.621Z,61.67
2018-11-10T03:54:33.760Z,58.00
2018-11-10T03:57:02.281Z,61.60
2018-11-10T03:59:30.457Z,56.27
2018-11-10T04:01:58.912Z,66.53
2018-11-10T04:04:27.052Z,60.93
2018-11-10T04:06:55.175Z,56.20
2018-11-10T04:09:23.338Z,58.80
2018-11-10T04:11:51.554Z,62.47
2018-11-10T04:14:19.815Z,58.00
2018-11-10T04:16:48.127Z,54.07
2018-11-10T04:19:16.240Z,59.50
2018-11-10T04:21:44.381Z,63.50
2018-11-10T04:24:12.693Z,58.30
2018-11-10T04:26:40.796Z,62.13
2018-11-10T04:29:08.912Z,63.63
2018-11-10T04:31:38.051Z,55.20
2018-11-10T04:34:06.412Z,53.83
2018-11-10T04:36:34.651Z,48.57
2018-11-10T04:39:02.761Z,65.67
2018-11-10T04:41:30.865Z,64.23
2018-11-10T04:43:59.011Z,60.50
2018-11-10T04:46:27.120Z,50.27
2018-11-10T04:48:55.244Z,53.20
2018-11-10T04:51:23.358Z,44.00
2018-11-10T04:53:51.489Z,63.30
2018-11-10T04:56:19.666Z,59.67
2018-11-10T04:58:47.835Z,54.47
2018-11-10T05:01:15.981Z,62.37
2018-11-10T05:03:44.103Z,51.27
2018-11-10T05:06:12.239Z,54.60
2018-11-10T05:08:40.382Z,55.20
2018-11-10T05:11:08.607Z,52.70
2018-11-10T05:13:36.709Z,54.50
2018-11-10T05:16:04.852Z,51.97
2018-11-10T05:18:33.064Z,53.20
2018-11-10T05:21:01.181Z,55.70
2018-11-10T05:23:29.387Z,43.27
2018-11-10T05:25:57.516Z,57.10
2018-11-10T05:28:25.686Z,50.47
2018-11-10T05:30:53.783Z,58.93
2018-11-10T05:33:22.644Z,49.50
2018-11-10T05:35:50.777Z,46.67
2018-11-10T05:38:18.910Z,52.30
2018-11-10T05:40:47.028Z,51.80
2018-11-10T05:43:15.185Z,48.80
2018-11-10T05:45:43.334Z,49.07
2018-11-10T05:48:11.452Z,48.10
2018-11-10T05:50:39.658Z,51.00
2018-11-10T05:53:08.706Z,47.60
2018-11-10T05:55:36.850Z,44.87
2018-11-10T05:58:05.272Z,49.33
2018-11-10T06:00:33.464Z,51.87
2018-11-10T06:03:03.007Z,42.63
2018-11-10T06:05:31.101Z,48.60
2018-11-10T06:07:59.292Z,52.90
2018-11-10T06:10:27.540Z,53.93
2018-11-10T06:12:55.633Z,42.23
2018-11-10T06:15:23.762Z,55.10
2018-11-10T06:17:51.923Z,49.33
2018-11-10T06:20:20.084Z,53.00
2018-11-10T06:22:48.196Z,49.67
2018-11-10T06:25:17.735Z,42.67
2018-11-10T06:27:45.878Z,46.73
2018-11-10T06:30:14.040Z,48.50
2018-11-10T06:32:42.263Z,50.57
2018-11-10T06:35:10.884Z,48.47
2018-11-10T06:37:39.342Z,53.70
2018-11-10T06:40:08.932Z,44.63
2018-11-10T06:42:39.044Z,44.30
2018-11-10T06:45:07.301Z,47.47
2018-11-10T06:47:35.900Z,44.77
2018-11-10T06:50:05.101Z,39.70
2018-11-10T06:52:33.240Z,48.50
2018-11-10T06:55:01.372Z,61.13
2018-11-10T06:57:29.702Z,48.53
2018-11-10T06:59:57.852Z,46.07
2018-11-10T07:02:25.996Z,61.67
2018-11-10T07:04:54.127Z,51.37
2018-11-10T07:07:22.242Z,47.67
2018-11-10T07:09:50.403Z,50.00
2018-11-10T07:12:18.586Z,45.13
2018-11-10T07:14:46.720Z,45.23
2018-11-10T07:17:14.952Z,51.70
2018-11-10T07:19:43.083Z,46.83
2018-11-10T07:22:11.256Z,43.60
2018-11-10T07:24:39.396Z,45.70
2018-11-10T07:27:07.526Z,53.13
2018-11-10T07:29:36.122Z,44.00
2018-11-10T07:32:04.574Z,41.47
2018-11-10T07:34:32.800Z,48.03
2018-11-10T07:37:01.764Z,49.73
2018-11-10T07:39:29.906Z,61.57
2018-11-10T07:41:58.020Z,45.63
2018-11-10T07:44:26.143Z,52.53
2018-11-10T07:46:54.289Z,53.10
2018-11-10T07:49:22.524Z,55.27
2018-11-10T07:51:50.626Z,58.00
2018-11-10T07:54:18.771Z,64.57
2018-11-10T07:56:46.994Z,57.53
2018-11-10T07:59:15.108Z,48.40
2018-11-10T08:01:43.218Z,50.20
2018-11-10T08:04:11.366Z,51.73
2018-11-10T08:06:39.518Z,53.60
2018-11-10T08:09:08.720Z,55.13
2018-11-10T08:11:36.922Z,62.00
2018-11-10T08:14:05.097Z,57.80
2018-11-10T08:16:33.670Z,50.23
2018-11-10T08:19:01.828Z,52.67
2018-11-10T08:21:29.978Z,58.60
2018-11-10T08:23:58.205Z,49.03
2018-11-10T08:26:26.411Z,55.43
2018-11-10T08:28:54.588Z,52.90
2018-11-10T08:31:22.829Z,57.47
2018-11-10T08:33:50.920Z,57.13
2018-11-10T08:36:19.129Z,51.93
2018-11-10T08:38:47.252Z,54.27
2018-11-10T08:41:15.382Z,53.90
2018-11-10T08:43:43.577Z,53.30
2018-11-10T08:46:11.780Z,73.70
2018-11-10T08:48:40.157Z,55.60
2018-11-10T08:51:08.718Z,58.97
2018-11-10T08:53:37.148Z,52.50
2018-11-10T08:56:05.743Z,50.23
2018-11-10T08:58:33.970Z,54.37
2018-11-10T09:01:02.241Z,51.20
2018-11-10T09:03:31.158Z,57.87
2018-11-10T09:05:59.291Z,55.03
2018-11-10T09:08:27.450Z,52.30
2018-11-10T09:10:55.573Z,55.13
2018-11-10T09:13:23.784Z,54.30
2018-11-10T09:15:52.030Z,59.77
2018-11-10T09:18:20.166Z,50.60
2018-11-10T09:20:48.358Z,63.33
2018-11-10T09:23:16.568Z,53.17
2018-11-10T09:25:45.283Z,53.90
2018-11-10T09:28:13.595Z,52.17
2018-11-10T09:30:41.871Z,60.07
2018-11-10T09:33:10.024Z,47.77
2018-11-10T09:35:38.604Z,52.97
2018-11-10T09:38:06.847Z,56.33
2018-11-10T09:40:34.977Z,55.47
2018-11-10T09:43:03.088Z,52.93
2018-11-10T09:45:31.247Z,58.13
2018-11-10T09:47:59.534Z,50.60
2018-11-10T09:50:27.713Z,59.60
2018-11-10T09:52:55.916Z,61.67
2018-11-10T09:55:24.081Z,55.37
2018-11-10T09:57:52.220Z,53.53
2018-11-10T10:00:21.328Z,54.63
2018-11-10T10:02:49.931Z,51.70
2018-11-10T10:05:17.761Z,52.77
2018-11-10T10:07:46.067Z,57.53
2018-11-10T10:10:15.535Z,54.50
2018-11-10T10:12:44.200Z,60.43
2018-11-10T10:15:13.540Z,57.70
2018-11-10T10:17:44.113Z,55.40
2018-11-10T10:20:15.534Z,54.13
2018-11-10T10:22:44.519Z,53.03
2018-11-10T10:25:13.658Z,56.97
2018-11-10T10:27:42.062Z,51.30
2018-11-10T10:30:14.402Z,53.90
2018-11-10T10:32:43.283Z,48.83
2018-11-10T10:35:11.856Z,55.30
2018-11-10T10:37:39.905Z,52.03
2018-11-10T10:40:09.537Z,51.33
2018-11-10T10:42:37.662Z,50.40
2018-11-10T10:45:07.150Z,53.90
2018-11-10T10:47:35.571Z,43.70
2018-11-10T10:50:03.967Z,44.83
2018-11-10T10:52:32.183Z,50.87
2018-11-10T10:55:00.365Z,50.97
2018-11-10T10:57:28.519Z,49.37
2018-11-10T10:59:56.719Z,47.50
2018-11-10T11:02:30.353Z,47.13
2018-11-10T11:04:59.815Z,54.77
2018-11-10T11:07:27.993Z,50.73
2018-11-10T11:09:56.155Z,43.63
2018-11-10T11:12:25.244Z,50.57
2018-11-10T11:14:53.438Z,50.87
2018-11-10T11:17:21.576Z,49.67
2018-11-10T11:19:49.710Z,42.87
2018-11-10T11:22:17.888Z,49.00
2018-11-10T11:24:46.029Z,43.93
2018-11-10T11:27:14.211Z,48.23
2018-11-10T11:29:42.447Z,48.90
2018-11-10T11:32:10.540Z,42.67
2018-11-10T11:34:38.684Z,47.87
2018-11-10T11:37:06.866Z,47.37
2018-11-10T11:39:35.620Z,40.43
2018-11-10T11:42:03.752Z,45.33
2018-11-10T11:44:31.930Z,48.80
2018-11-10T11:47:00.363Z,46.93
2018-11-10T11:49:28.531Z,42.60
2018-11-10T11:51:57.385Z,44.83
2018-11-10T11:54:25.530Z,49.00
2018-11-10T11:56:53.739Z,44.27
2018-11-10T11:59:22.323Z,39.37
2018-11-10T12:01:50.463Z,40.63
2018-11-10T12:04:18.647Z,41.27
2018-11-10T12:06:46.858Z,41.27
2018-11-10T12:09:15.047Z,41.30
2018-11-10T12:11:43.202Z,47.60
2018-11-10T12:14:11.614Z,37.90
2018-11-10T12:16:39.842Z,44.63
2018-11-10T12:19:08.559Z,49.63
2018-11-10T12:21:36.753Z,43.63
2018-11-10T12:24:05.081Z,43.17
2018-11-10T12:26:33.304Z,42.97
2018-11-10T12:29:01.407Z,47.90
2018-11-10T12:31:29.658Z,43.73
2018-11-10T12:33:57.897Z,42.27
2018-11-10T12:36:26.041Z,39.13
2018-11-10T12:38:54.215Z,40.37
2018-11-10T12:41:22.375Z,48.40
2018-11-10T12:43:50.555Z,49.60
2018-11-10T12:46:18.709Z,54.63
2018-11-10T12:48:46.889Z,45.20
2018-11-10T12:51:15.065Z,43.97
2018-11-10T12:53:43.427Z,39.73
2018-11-10T12:56:14.139Z,40.20
2018-11-10T12:58:42.394Z,37.33
2018-11-10T13:01:10.607Z,37.60
2018-11-10T13:03:38.787Z,37.73
2018-11-10T13:06:06.997Z,41.90
2018-11-10T13:08:35.113Z,40.63
2018-11-10T13:11:03.390Z,45.30
2018-11-10T13:13:31.551Z,35.93
2018-11-10T13:15:59.668Z,38.70
2018-11-10T13:18:27.827Z,45.90
2018-11-10T13:20:56.003Z,42.73
2018-11-10T13:23:24.206Z,44.27
2018-11-10T13:25:52.381Z,37.10
2018-11-10T13:28:20.535Z,39.43
2018-11-10T13:30:48.734Z,43.13
2018-11-10T13:33:16.879Z,41.80
2018-11-10T13:35:45.004Z,36.53
2018-11-10T13:38:13.364Z,38.27
2018-11-10T13:40:41.383Z,36.70
2018-11-10T13:43:09.544Z,37.47
2018-11-10T13:45:37.633Z,39.00
2018-11-10T13:48:05.757Z,42.43
2018-11-10T13:50:33.979Z,39.50
2018-11-10T13:53:02.468Z,38.20
2018-11-10T13:55:30.147Z,41.73
2018-11-10T13:57:59.865Z,37.47
2018-11-10T14:00:27.992Z,37.93
2018-11-10T14:02:56.141Z,37.90
2018-11-10T14:05:24.294Z,41.97
2018-11-10T14:07:55.199Z,40.40
2018-11-10T14:10:24.894Z,37.90
2018-11-10T14:12:53.169Z,34.40
2018-11-10T14:15:21.285Z,39.07
2018-11-10T14:17:49.404Z,40.33
2018-11-10T14:20:17.583Z,38.83
2018-11-10T14:22:46.452Z,45.53
2018-11-10T14:25:15.794Z,46.67
2018-11-10T14:27:44.475Z,43.90
2018-11-10T14:30:15.132Z,37.50
2018-11-10T14:32:43.824Z,40.20
2018-11-10T14:35:12.350Z,43.27
2018-11-10T14:37:40.500Z,53.40
2018-11-10T14:40:11.731Z,39.40
2018-11-10T14:42:40.517Z,42.63
2018-11-10T14:45:10.422Z,54.47
2018-11-10T14:47:38.531Z,51.80
2018-11-10T14:50:07.636Z,53.83
2018-11-10T14:52:35.835Z,39.07
2018-11-10T14:55:04.058Z,61.27
2018-11-10T14:57:32.729Z,44.87
2018-11-10T15:00:00.892Z,38.33
2018-11-10T15:02:29.044Z,40.87
2018-11-10T15:04:57.203Z,41.63
2018-11-10T15:07:25.307Z,35.50
2018-11-10T15:09:53.447Z,34.37
2018-11-10T15:12:21.606Z,40.53
2018-11-10T15:14:49.766Z,32.40
2018-11-10T15:17:17.931Z,31.63
2018-11-10T15:19:46.053Z,39.77
2018-11-10T15:22:14.203Z,35.33
2018-11-10T15:24:42.388Z,41.00
2018-11-10T15:27:10.513Z,41.70
2018-11-10T15:29:38.671Z,42.50
2018-11-10T15:32:06.913Z,36.33
2018-11-10T15:34:35.085Z,47.50
2018-11-10T15:37:04.095Z,40.07
2018-11-10T15:39:32.239Z,43.67
2018-11-10T15:42:00.347Z,37.90
2018-11-10T15:44:28.471Z,37.27
2018-11-10T15:46:56.629Z,52.67
2018-11-10T15:49:24.765Z,44.07
2018-11-10T15:51:52.975Z,42.17
2018-11-10T15:54:21.108Z,45.27
2018-11-10T15:56:49.270Z,43.53
2018-11-10T15:59:17.478Z,65.80
2018-11-10T16:01:45.804Z,40.07
2018-11-10T16:04:14.009Z,52.93
2018-11-10T16:06:42.465Z,45.63
2018-11-10T16:09:12.264Z,50.87
2018-11-10T16:11:40.566Z,67.37
2018-11-10T16:14:08.953Z,53.90
2018-11-10T16:16:37.261Z,43.27
2018-11-10T16:19:05.446Z,54.63
2018-11-10T16:21:33.567Z,47.07
2018-11-10T16:24:01.729Z,48.30
2018-11-10T16:26:29.903Z,45.70
2018-11-10T16:28:58.129Z,43.70
2018-11-10T16:31:26.741Z,54.03
2018-11-10T16:33:55.208Z,46.80
2018-11-10T16:36:23.410Z,51.50
2018-11-10T16:38:53.042Z,44.40
2018-11-10T16:41:21.349Z,48.93
2018-11-10T16:43:49.482Z,49.23
2018-11-10T16:46:17.583Z,46.97
2018-11-10T16:48:45.771Z,48.73
2018-11-10T16:51:13.951Z,44.00
2018-11-10T16:53:42.127Z,50.33
2018-11-10T16:56:10.297Z,44.90
2018-11-10T16:58:38.492Z,40.70
2018-11-10T17:01:06.722Z,42.70
2018-11-10T17:03:34.912Z,46.93
2018-11-10T17:06:03.065Z,44.87
2018-11-10T17:08:31.283Z,41.70
2018-11-10T17:10:59.456Z,43.50
2018-11-10T17:13:27.668Z,48.87
2018-11-10T17:15:55.927Z,45.90
2018-11-10T17:18:24.062Z,45.10
2018-11-10T17:20:52.214Z,50.47
2018-11-10T17:23:20.499Z,44.90
2018-11-10T17:25:48.687Z,56.97
2018-11-10T17:28:16.967Z,48.80
2018-11-10T17:30:45.172Z,50.37
2018-11-10T17:33:13.510Z,59.20
2018-11-10T17:35:42.350Z,51.00
2018-11-10T17:38:10.589Z,81.27
2018-11-10T17:40:38.804Z,43.37
2018-11-10T17:43:07.079Z,50.83
2018-11-10T17:45:35.549Z,47.80
2018-11-10T17:48:03.794Z,72.93
2018-11-10T17:50:32.060Z,52.23
2018-11-10T17:53:00.257Z,56.37
2018-11-10T17:55:28.504Z,58.00
2018-11-10T17:57:57.056Z,63.47
2018-11-10T18:00:25.446Z,54.70
2018-11-10T18:02:53.762Z,52.07
2018-11-10T18:05:21.896Z,54.63
2018-11-10T18:07:51.113Z,51.93
2018-11-10T18:10:19.556Z,60.60
2018-11-10T18:12:47.842Z,52.33
2018-11-10T18:15:16.473Z,54.03
2018-11-10T18:17:44.956Z,60.87
2018-11-10T18:20:14.432Z,53.60
2018-11-10T18:22:42.936Z,49.73
2018-11-10T18:25:12.330Z,59.60
2018-11-10T18:27:41.010Z,55.53
2018-11-10T18:30:10.952Z,51.30
2018-11-10T18:32:39.193Z,49.20
2018-11-10T18:35:08.067Z,53.43
2018-11-10T18:37:36.221Z,66.27
2018-11-10T18:40:04.741Z,57.33
2018-11-10T18:42:32.837Z,48.33
2018-11-10T18:45:01.138Z,52.57
2018-11-10T18:47:29.325Z,53.10
2018-11-10T18:49:57.542Z,64.43
2018-11-10T18:52:25.784Z,53.50
2018-11-10T18:54:53.880Z,52.23
2018-11-10T18:57:22.393Z,53.23
2018-11-10T18:59:50.572Z,60.37
2018-11-10T19:02:18.800Z,53.90
2018-11-10T19:04:46.946Z,55.53
2018-11-10T19:07:15.122Z,52.50
2018-11-10T19:09:43.280Z,54.63
2018-11-10T19:12:11.496Z,58.57
2018-11-10T19:14:39.678Z,57.53
2018-11-10T19:17:07.860Z,67.70
2018-11-10T19:19:36.027Z,55.07
2018-11-10T19:22:04.234Z,56.53
2018-11-10T19:24:32.386Z,52.33
2018-11-10T19:27:00.564Z,60.07
2018-11-10T19:29:28.743Z,60.77
2018-11-10T19:31:57.001Z,54.30
2018-11-10T19:34:25.218Z,64.03
2018-11-10T19:36:53.414Z,48.07
2018-11-10T19:39:22.754Z,56.47
2018-11-10T19:41:50.937Z,58.10
2018-11-10T19:44:19.098Z,57.63
2018-11-10T19:46:47.275Z,62.50
2018-11-10T19:49:16.470Z,69.03
2018-11-10T19:51:45.790Z,64.07
2018-11-10T19:54:13.859Z,55.90
2018-11-10T19:56:42.016Z,63.43
2018-11-10T19:59:10.194Z,57.37
2018-11-10T20:01:40.272Z,62.13
2018-11-10T20:04:08.429Z,59.47
2018-11-10T20:06:36.647Z,66.40
2018-11-10T20:09:07.868Z,60.40
2018-11-10T20:11:36.098Z,63.77
2018-11-10T20:14:04.383Z,65.20
2018-11-10T20:16:32.654Z,66.70
2018-11-10T20:19:00.884Z,57.43
2018-11-10T20:21:29.079Z,61.93
2018-11-10T20:23:57.352Z,57.33
2018-11-10T20:26:25.563Z,50.03
2018-11-10T20:28:53.831Z,59.27
2018-11-10T20:31:22.096Z,61.67
2018-11-10T20:33:50.263Z,54.70
2018-11-10T20:36:18.426Z,54.27
2018-11-10T20:38:46.673Z,65.07
2018-11-10T20:41:15.673Z,61.03
2018-11-10T20:43:43.928Z,64.90
2018-11-10T20:46:12.117Z,69.77
2018-11-10T20:48:40.320Z,76.27
2018-11-10T20:51:08.521Z,74.13
2018-11-10T20:53:36.698Z,75.93
2018-11-10T20:56:05.328Z,63.70
2018-11-10T20:58:33.514Z,118.60
2018-11-10T21:01:01.742Z,103.33
2018-11-10T21:03:30.767Z,69.90
2018-11-10T21:05:58.950Z,85.83
2018-11-10T21:08:27.118Z,88.80
2018-11-10T21:10:55.331Z,69.23
2018-11-10T21:13:23.501Z,74.00
2018-11-10T21:15:51.702Z,67.10
2018-11-10T21:18:19.880Z,70.13
2018-11-10T21:20:48.357Z,86.27
2018-11-10T21:23:16.584Z,71.90
2018-11-10T21:25:44.801Z,66.57
2018-11-10T21:28:13.327Z,68.30
2018-11-10T21:30:41.528Z,63.40
2018-11-10T21:33:09.747Z,73.00
2018-11-10T21:35:38.061Z,71.50
2018-11-10T21:38:06.254Z,67.13
2018-11-10T21:40:34.439Z,65.77
2018-11-10T21:43:02.620Z,64.30
2018-11-10T21:45:30.826Z,65.70
2018-11-10T21:47:59.007Z,71.67
2018-11-10T21:50:27.288Z,59.70
2018-11-10T21:52:55.462Z,64.57
2018-11-10T21:55:23.685Z,85.90
2018-11-10T21:57:51.823Z,90.37
2018-11-10T22:00:21.368Z,90.83
2018-11-10T22:02:49.861Z,63.43
2018-11-10T22:05:18.364Z,77.17
2018-11-10T22:07:46.658Z,67.10
2018-11-10T22:10:16.131Z,102.80
2018-11-10T22:12:44.688Z,71.07
2018-11-10T22:15:15.335Z,54.47
2018-11-10T22:17:44.223Z,67.63
2018-11-10T22:20:15.644Z,73.03
2018-11-10T22:22:43.850Z,80.20
2018-11-10T22:25:12.639Z,59.83
2018-11-10T22:27:42.190Z,62.30
2018-11-10T22:30:12.508Z,62.70
2018-11-10T22:32:41.018Z,71.40
2018-11-10T22:35:10.599Z,64.83
2018-11-10T22:37:39.013Z,54.70
2018-11-10T22:40:09.095Z,56.60
2018-11-10T22:42:38.216Z,54.57
2018-11-10T22:45:07.432Z,87.20
2018-11-10T22:47:35.628Z,71.50
2018-11-10T22:50:04.030Z,56.60
2018-11-10T22:52:32.874Z,68.53
2018-11-10T22:55:01.988Z,84.33
2018-11-10T22:57:31.230Z,59.53
2018-11-10T22:59:59.380Z,55.37
2018-11-10T23:02:27.595Z,59.17
2018-11-10T23:04:55.804Z,63.67
2018-11-10T23:07:24.123Z,62.30
2018-11-10T23:09:52.231Z,64.63
2018-11-10T23:12:21.088Z,59.33
2018-11-10T23:14:49.293Z,56.00
2018-11-10T23:17:17.538Z,60.87
2018-11-10T23:19:45.637Z,56.90
2018-11-10T23:22:13.785Z,53.63
2018-11-10T23:24:41.903Z,61.13
2018-11-10T23:27:10.048Z,64.17
2018-11-10T23:29:38.199Z,64.43
2018-11-10T23:32:06.441Z,74.30
2018-11-10T23:34:34.629Z,67.80
2018-11-10T23:37:02.829Z,53.97
2018-11-10T23:39:30.973Z,59.50
2018-11-10T23:41:59.159Z,60.90
2018-11-10T23:44:27.379Z,63.27
2018-11-10T23:46:55.523Z,58.30
2018-11-10T23:49:23.670Z,62.30
2018-11-10T23:51:51.823Z,68.07
2018-11-10T23:54:20.023Z,63.13
2018-11-10T23:56:48.593Z,61.83
2018-11-10T23:59:16.770Z,69.47
